createdAt,value
2023-02-28T00:01:33.459Z,98991.94
2023-02-28T00:04:00.817Z,98997.75
2023-02-28T00:06:28.210Z,98996.22
2023-02-28T00:08:55.617Z,98988.16
2023-02-28T00:11:22.983Z,98983.75
2023-02-28T00:13:50.652Z,98987.06
2023-02-28T00:16:23.489Z,98990.03
2023-02-28T00:18:51.339Z,98997.34
2023-02-28T00:21:19.863Z,98993.72
2023-02-28T00:23:47.336Z,98993.03
2023-02-28T00:26:14.692Z,98989.03
2023-02-28T00:28:45.551Z,98986.75
2023-02-28T00:31:12.958Z,98986.03
2023-02-28T00:33:40.330Z,98988.63
2023-02-28T00:36:11.512Z,98984.34
2023-02-28T00:38:40.707Z,98984.56
2023-02-28T00:41:08.576Z,98982.41
2023-02-28T00:43:37.853Z,98979.69
2023-02-28T00:46:05.602Z,98984.69
2023-02-28T00:48:33.182Z,98982.28
2023-02-28T00:51:00.741Z,98985.28
2023-02-28T00:53:28.201Z,98981.47
2023-02-28T00:55:58.467Z,98983.50
2023-02-28T00:58:27.184Z,98987.84
2023-02-28T01:00:54.836Z,98981.78
2023-02-28T01:03:23.600Z,98982.59
2023-02-28T01:05:50.955Z,98981.38
2023-02-28T01:08:18.263Z,98976.34
2023-02-28T01:10:45.650Z,98979.59
2023-02-28T01:13:13.592Z,98975.28
2023-02-28T01:15:47.061Z,98970.88
2023-02-28T01:18:14.435Z,98970.69
2023-02-28T01:20:41.817Z,98975.00
2023-02-28T01:23:10.355Z,98976.03
2023-02-28T01:25:38.020Z,98974.84
2023-02-28T01:28:06.734Z,98965.31
2023-02-28T01:30:34.953Z,98968.47
2023-02-28T01:33:02.464Z,98971.63
2023-02-28T01:35:29.737Z,98970.75
2023-02-28T01:38:02.826Z,98966.19
2023-02-28T01:40:34.215Z,98964.41
2023-02-28T01:43:01.620Z,98964.41
2023-02-28T01:45:31.471Z,98960.66
2023-02-28T01:48:08.927Z,98966.28
2023-02-28T01:50:40.566Z,98971.13
2023-02-28T01:53:11.582Z,98966.78
2023-02-28T01:55:40.601Z,98966.31
2023-02-28T01:58:10.008Z,98964.63
2023-02-28T02:00:37.583Z,98958.53
2023-02-28T02:03:17.142Z,98960.22
2023-02-28T02:05:48.456Z,98955.13
2023-02-28T02:08:21.337Z,98951.03
2023-02-28T02:11:01.490Z,98957.13
2023-02-28T02:14:03.196Z,98947.81
2023-02-28T02:17:08.975Z,98942.97
2023-02-28T02:19:55.465Z,98940.13
2023-02-28T02:22:34.694Z,98946.78
2023-02-28T02:25:13.131Z,98945.31
2023-02-28T02:28:34.649Z,98939.16
2023-02-28T02:31:58.298Z,98940.13
2023-02-28T02:35:00.200Z,98945.25
2023-02-28T02:37:32.398Z,98936.81
2023-02-28T02:40:15.154Z,98943.47
2023-02-28T02:43:02.200Z,98938.06
2023-02-28T02:45:49.233Z,98942.59
2023-02-28T02:48:21.278Z,98935.94
2023-02-28T02:50:59.469Z,98938.25
2023-02-28T02:53:38.498Z,98942.13
2023-02-28T02:56:08.400Z,98932.59
2023-02-28T02:58:43.986Z,98940.50
2023-02-28T03:01:28.627Z,98935.81
2023-02-28T03:04:13.858Z,98930.03
2023-02-28T03:06:41.887Z,98931.69
2023-02-28T03:09:10.231Z,98929.94
2023-02-28T03:11:41.455Z,98935.53
2023-02-28T03:14:31.836Z,98931.78
2023-02-28T03:17:10.294Z,98931.47
2023-02-28T03:19:49.369Z,98924.41
2023-02-28T03:22:42.407Z,98933.47
2023-02-28T03:25:33.216Z,98937.19
2023-02-28T03:28:45.695Z,98935.34
2023-02-28T03:31:30.216Z,98931.47
2023-02-28T03:34:35.906Z,98932.38
2023-02-28T03:37:17.444Z,98940.53
2023-02-28T03:40:00.519Z,98936.81
2023-02-28T03:42:30.912Z,98933.19
2023-02-28T03:45:11.835Z,98933.69
2023-02-28T03:47:46.733Z,98938.69
2023-02-28T03:50:39.339Z,98932.78
2023-02-28T03:53:30.399Z,98934.16
2023-02-28T03:55:59.070Z,98937.09
2023-02-28T03:58:42.406Z,98933.38
2023-02-28T04:01:18.769Z,98928.13
2023-02-28T04:03:46.250Z,98935.78
2023-02-28T04:06:20.898Z,98937.19
2023-02-28T04:08:48.432Z,98937.00
2023-02-28T04:11:24.278Z,98940.72
2023-02-28T04:13:51.676Z,98944.13
2023-02-28T04:16:33.483Z,98942.00
2023-02-28T04:19:06.210Z,98949.66
2023-02-28T04:21:41.360Z,98942.78
2023-02-28T04:24:17.974Z,98944.81
2023-02-28T04:26:53.615Z,98944.22
2023-02-28T04:29:25.716Z,98945.09
2023-02-28T04:31:58.757Z,98948.47
2023-02-28T04:34:31.488Z,98946.16
2023-02-28T04:37:17.050Z,98944.00
2023-02-28T04:39:44.793Z,98948.34
2023-02-28T04:42:13.156Z,98950.00
2023-02-28T04:44:40.572Z,98942.19
2023-02-28T04:47:07.865Z,98945.75
2023-02-28T04:49:35.802Z,98944.19
2023-02-28T04:52:03.145Z,98939.88
2023-02-28T04:54:30.818Z,98947.22
2023-02-28T04:57:00.637Z,98950.94
2023-02-28T04:59:28.213Z,98944.59
2023-02-28T05:01:55.503Z,98949.69
2023-02-28T05:04:22.864Z,98951.97
2023-02-28T05:06:50.209Z,98955.34
2023-02-28T05:09:17.497Z,98949.00
2023-02-28T05:11:44.742Z,98948.22
2023-02-28T05:14:15.100Z,98943.44
2023-02-28T05:16:42.661Z,98942.44
2023-02-28T05:19:10.067Z,98944.22
2023-02-28T05:21:40.287Z,98951.38
2023-02-28T05:24:11.487Z,98947.19
2023-02-28T05:26:41.692Z,98951.88
2023-02-28T05:29:09.828Z,98951.22
2023-02-28T05:31:37.277Z,98956.19
2023-02-28T05:34:07.282Z,98955.25
2023-02-28T05:36:34.602Z,98952.41
2023-02-28T05:39:01.882Z,98954.56
2023-02-28T05:41:29.530Z,98945.09
2023-02-28T05:43:58.118Z,98953.56
2023-02-28T05:46:25.378Z,98950.09
2023-02-28T05:48:52.662Z,98950.53
2023-02-28T05:51:19.940Z,98951.91
2023-02-28T05:53:47.973Z,98953.88
2023-02-28T05:56:15.229Z,98948.66
2023-02-28T05:58:42.571Z,98957.94
2023-02-28T06:01:37.599Z,98953.25
2023-02-28T06:04:09.886Z,98959.50
2023-02-28T06:06:40.251Z,98957.22
2023-02-28T06:09:07.606Z,98961.28
2023-02-28T06:11:35.260Z,98958.69
2023-02-28T06:14:03.310Z,98961.88
2023-02-28T06:16:32.916Z,98963.16
2023-02-28T06:19:02.913Z,98968.38
2023-02-28T06:21:31.019Z,98977.22
2023-02-28T06:23:59.227Z,98971.59
2023-02-28T06:26:26.860Z,98980.03
2023-02-28T06:28:54.682Z,98975.66
2023-02-28T06:31:22.962Z,98983.06
2023-02-28T06:33:51.015Z,98981.53
2023-02-28T06:36:18.895Z,98982.91
2023-02-28T06:38:46.343Z,98984.63
2023-02-28T06:41:13.680Z,98991.69
2023-02-28T06:43:43.238Z,98986.53
2023-02-28T06:46:13.362Z,98995.88
2023-02-28T06:48:41.005Z,98993.25
2023-02-28T06:51:18.554Z,98995.00
2023-02-28T06:53:46.369Z,98986.72
2023-02-28T06:56:16.812Z,98998.19
2023-02-28T06:58:49.409Z,98997.19
2023-02-28T07:01:16.716Z,98997.44
2023-02-28T07:03:44.297Z,99004.13
2023-02-28T07:06:11.718Z,99016.13
2023-02-28T07:08:41.037Z,99010.28
2023-02-28T07:11:08.375Z,99014.22
2023-02-28T07:13:35.710Z,99004.94
2023-02-28T07:16:09.891Z,99010.78
2023-02-28T07:18:38.088Z,99013.78
2023-02-28T07:21:07.831Z,99016.63
2023-02-28T07:23:36.098Z,99009.72
2023-02-28T07:26:04.052Z,99022.94
2023-02-28T07:28:31.404Z,99016.59
2023-02-28T07:31:03.875Z,99016.50
2023-02-28T07:33:30.708Z,99018.72
2023-02-28T07:36:16.097Z,99021.97
2023-02-28T07:38:48.132Z,99020.78
2023-02-28T07:41:21.060Z,99022.06
2023-02-28T07:43:48.392Z,99030.41
2023-02-28T07:46:17.648Z,99031.34
2023-02-28T07:48:45.512Z,99028.50
2023-02-28T07:51:16.103Z,99032.09
2023-02-28T07:53:43.413Z,99033.97
2023-02-28T07:56:11.691Z,99027.88
2023-02-28T07:58:39.002Z,99032.88
2023-02-28T08:01:11.121Z,99028.72
2023-02-28T08:03:39.452Z,99040.19
2023-02-28T08:06:09.057Z,99033.41
2023-02-28T08:08:36.374Z,99036.34
2023-02-28T08:11:04.740Z,99039.88
2023-02-28T08:13:32.487Z,99034.03
2023-02-28T08:16:02.367Z,99032.06
2023-02-28T08:18:29.696Z,99036.25
2023-02-28T08:20:57.612Z,99038.09
2023-02-28T08:23:24.963Z,99029.88
2023-02-28T08:25:57.059Z,99033.28
2023-02-28T08:28:27.158Z,99033.28
2023-02-28T08:30:55.331Z,99022.59
2023-02-28T08:33:23.726Z,99030.28
2023-02-28T08:35:57.116Z,99022.00
2023-02-28T08:38:24.973Z,99023.88
2023-02-28T08:40:58.476Z,99024.00
2023-02-28T08:43:25.848Z,99035.69
2023-02-28T08:45:54.142Z,99025.91
2023-02-28T08:48:21.532Z,99028.34
2023-02-28T08:51:07.612Z,99034.63
2023-02-28T08:53:35.568Z,99028.66
2023-02-28T08:56:07.020Z,99026.13
2023-02-28T08:58:35.312Z,99033.63
2023-02-28T09:01:14.607Z,99028.78
2023-02-28T09:03:43.317Z,99031.75
2023-02-28T09:06:11.757Z,99026.16
2023-02-28T09:08:39.238Z,99023.97
2023-02-28T09:11:06.734Z,99025.06
2023-02-28T09:13:34.337Z,99021.06
2023-02-28T09:16:03.821Z,99017.91
2023-02-28T09:18:31.366Z,99016.06
2023-02-28T09:20:59.026Z,99017.97
2023-02-28T09:23:26.672Z,99020.06
2023-02-28T09:25:55.980Z,99019.66
2023-02-28T09:28:23.750Z,99030.75
2023-02-28T09:30:54.111Z,99023.16
2023-02-28T09:33:22.554Z,99030.84
2023-02-28T09:35:50.654Z,99022.06
2023-02-28T09:38:18.783Z,99015.63
2023-02-28T09:40:54.308Z,99024.59
2023-02-28T09:43:34.571Z,99017.00
2023-02-28T09:46:29.130Z,99037.72
2023-02-28T09:48:57.852Z,99027.53
2023-02-28T09:51:44.820Z,99036.69
2023-02-28T09:54:19.967Z,99036.63
2023-02-28T09:57:19.725Z,99034.13
2023-02-28T10:00:11.341Z,99034.22
2023-02-28T10:03:31.753Z,99034.28
2023-02-28T10:06:15.816Z,99042.00
2023-02-28T10:09:02.908Z,99037.13
2023-02-28T10:11:33.979Z,99036.22
2023-02-28T10:14:08.003Z,99032.44
2023-02-28T10:17:27.204Z,99033.41
2023-02-28T10:20:08.854Z,99037.34
2023-02-28T10:22:51.165Z,99033.50
2023-02-28T10:25:23.759Z,99039.56
2023-02-28T10:27:54.693Z,99042.88
2023-02-28T10:30:22.213Z,99037.44
2023-02-28T10:32:54.593Z,99046.38
2023-02-28T10:35:22.898Z,99047.13
2023-02-28T10:37:55.104Z,99028.75
2023-02-28T10:40:22.563Z,99036.84
2023-02-28T10:43:05.075Z,99034.09
2023-02-28T10:45:38.101Z,99036.69
2023-02-28T10:48:15.813Z,99035.31
2023-02-28T10:50:53.227Z,99037.91
2023-02-28T10:53:24.025Z,99029.13
2023-02-28T10:56:17.393Z,99033.66
2023-02-28T10:59:00.011Z,99038.66
2023-02-28T11:01:41.595Z,99027.91
2023-02-28T11:04:23.683Z,99032.38
2023-02-28T11:07:23.250Z,99026.59
2023-02-28T11:09:54.112Z,99024.97
2023-02-28T11:12:52.291Z,99032.19
2023-02-28T11:15:30.264Z,99017.22
2023-02-28T11:18:25.681Z,99022.59
2023-02-28T11:20:55.378Z,99025.88
2023-02-28T11:23:22.972Z,99019.56
2023-02-28T11:25:54.705Z,99019.81
2023-02-28T11:28:27.971Z,99019.16
2023-02-28T11:31:17.682Z,99011.97
2023-02-28T11:33:51.079Z,99013.31
2023-02-28T11:36:31.076Z,99017.50
2023-02-28T11:39:09.505Z,99004.25
2023-02-28T11:42:07.143Z,98999.69
2023-02-28T11:45:18.839Z,99011.66
2023-02-28T11:48:09.314Z,99000.84
2023-02-28T11:51:12.549Z,98995.44
2023-02-28T11:54:01.792Z,98974.31
2023-02-28T11:56:44.195Z,98975.56
2023-02-28T11:59:36.254Z,98975.28
2023-02-28T12:02:30.126Z,98966.47
2023-02-28T12:05:23.078Z,98973.59
2023-02-28T12:08:21.439Z,98965.69
2023-02-28T12:10:55.995Z,98973.75
2023-02-28T12:13:31.025Z,98967.81
2023-02-28T12:16:38.907Z,98961.78
2023-02-28T12:20:14.061Z,98968.03
2023-02-28T12:22:50.320Z,98961.47
2023-02-28T12:25:44.377Z,98953.41
2023-02-28T12:28:15.407Z,98959.16
2023-02-28T12:31:09.745Z,98953.97
2023-02-28T12:33:46.279Z,98945.13
2023-02-28T12:36:19.965Z,98948.63
2023-02-28T12:38:58.114Z,98947.66
2023-02-28T12:41:48.030Z,98947.78
2023-02-28T12:44:23.069Z,98941.78
2023-02-28T12:46:59.273Z,98943.72
2023-02-28T12:49:42.232Z,98948.94
2023-02-28T12:52:12.014Z,98954.31
2023-02-28T12:54:53.876Z,98944.41
2023-02-28T12:57:39.733Z,98937.41
2023-02-28T13:00:16.926Z,98939.84
2023-02-28T13:03:18.161Z,98937.28
2023-02-28T13:06:23.505Z,98937.38
2023-02-28T13:09:16.529Z,98928.09
2023-02-28T13:11:50.172Z,98924.91
2023-02-28T13:14:38.718Z,98922.50
2023-02-28T13:17:09.841Z,98924.47
2023-02-28T13:19:40.580Z,98933.28
2023-02-28T13:22:26.012Z,98935.13
2023-02-28T13:24:59.173Z,98922.44
2023-02-28T13:27:43.744Z,98929.44
2023-02-28T13:30:51.476Z,98927.16
2023-02-28T13:33:39.838Z,98926.56
2023-02-28T13:36:15.442Z,98925.16
2023-02-28T13:39:01.021Z,98920.88
2023-02-28T13:41:35.183Z,98920.91
2023-02-28T13:44:24.034Z,98924.38
2023-02-28T13:46:51.779Z,98926.84
2023-02-28T13:49:25.846Z,98917.09
2023-02-28T13:52:07.870Z,98923.22
2023-02-28T13:54:47.068Z,98932.16
2023-02-28T13:57:54.318Z,98927.59
2023-02-28T14:01:12.618Z,98920.25
2023-02-28T14:04:13.334Z,98923.53
2023-02-28T14:06:58.161Z,98935.06
2023-02-28T14:09:41.644Z,98933.22
2023-02-28T14:12:55.452Z,98926.97
2023-02-28T14:15:51.264Z,98927.44
2023-02-28T14:18:35.776Z,98921.78
2023-02-28T14:21:13.211Z,98927.16
2023-02-28T14:24:04.378Z,98921.22
2023-02-28T14:26:55.889Z,98940.22
2023-02-28T14:29:50.813Z,98924.66
2023-02-28T14:32:48.588Z,98913.59
2023-02-28T14:35:46.080Z,98917.34
2023-02-28T14:38:28.947Z,98927.13
2023-02-28T14:40:59.676Z,98927.41
2023-02-28T14:43:28.989Z,98937.03
2023-02-28T14:46:04.214Z,98940.16
2023-02-28T14:48:31.742Z,98948.34
2023-02-28T14:51:01.656Z,98945.66
2023-02-28T14:53:37.833Z,98956.69
2023-02-28T14:56:05.660Z,98951.31
2023-02-28T14:58:34.847Z,98944.72
2023-02-28T15:01:04.269Z,98949.94
2023-02-28T15:03:34.149Z,98945.09
2023-02-28T15:06:06.752Z,98955.16
2023-02-28T15:08:37.206Z,98955.38
2023-02-28T15:11:24.780Z,98952.19
2023-02-28T15:13:54.132Z,98954.25
2023-02-28T15:16:25.400Z,98957.78
2023-02-28T15:19:07.949Z,98961.25
2023-02-28T15:21:39.329Z,98953.28
2023-02-28T15:24:11.593Z,98948.44
2023-02-28T15:26:47.875Z,98963.91
2023-02-28T15:29:24.282Z,98966.19
2023-02-28T15:31:58.696Z,98957.84
2023-02-28T15:34:46.123Z,98966.50
2023-02-28T15:37:28.076Z,98962.84
2023-02-28T15:39:57.777Z,98958.22
2023-02-28T15:42:29.439Z,98959.88
2023-02-28T15:44:58.152Z,98960.38
2023-02-28T15:47:28.220Z,98966.16
2023-02-28T15:49:59.889Z,98965.63
2023-02-28T15:52:37.669Z,98966.34
2023-02-28T15:55:25.476Z,98970.19
2023-02-28T15:57:55.453Z,98969.31
2023-02-28T16:00:25.843Z,98963.19
2023-02-28T16:02:53.622Z,98968.50
2023-02-28T16:05:31.500Z,98972.09
2023-02-28T16:08:01.324Z,98969.84
2023-02-28T16:10:29.611Z,98971.25
2023-02-28T16:12:58.971Z,98967.91
2023-02-28T16:15:29.800Z,98976.56
2023-02-28T16:17:58.370Z,98979.38
2023-02-28T16:20:28.289Z,98984.03
2023-02-28T16:22:56.060Z,98980.53
2023-02-28T16:25:35.284Z,98977.09
2023-02-28T16:28:02.933Z,98977.09
2023-02-28T16:30:33.513Z,98983.47
2023-02-28T16:33:01.092Z,98986.78
2023-02-28T16:35:28.428Z,98986.22
2023-02-28T16:37:56.476Z,98993.13
2023-02-28T16:40:26.843Z,98991.91
2023-02-28T16:43:00.257Z,98991.19
2023-02-28T16:45:29.426Z,98990.03
2023-02-28T16:47:57.181Z,98991.84
2023-02-28T16:50:31.142Z,99001.88
2023-02-28T16:52:58.550Z,99001.88
2023-02-28T16:55:27.257Z,99001.03
2023-02-28T16:57:57.500Z,99008.59
2023-02-28T17:00:28.567Z,99002.47
2023-02-28T17:02:56.565Z,99011.06
2023-02-28T17:05:24.343Z,99014.16
2023-02-28T17:07:51.647Z,99018.88
2023-02-28T17:10:27.235Z,99022.16
2023-02-28T17:12:58.413Z,99026.06
2023-02-28T17:15:32.056Z,99025.69
2023-02-28T17:17:59.429Z,99033.50
2023-02-28T17:20:27.440Z,99031.91
2023-02-28T17:22:55.616Z,99034.06
2023-02-28T17:25:24.047Z,99028.84
2023-02-28T17:27:54.654Z,99040.69
2023-02-28T17:30:28.637Z,99045.50
2023-02-28T17:32:57.230Z,99044.78
2023-02-28T17:35:25.267Z,99044.31
2023-02-28T17:37:52.636Z,99051.16
2023-02-28T17:40:24.615Z,99053.09
2023-02-28T17:42:53.272Z,99054.56
2023-02-28T17:45:21.297Z,99057.38
2023-02-28T17:47:51.291Z,99049.16
2023-02-28T17:50:21.961Z,99057.03
2023-02-28T17:52:51.302Z,99057.00
2023-02-28T17:55:19.957Z,99061.69
2023-02-28T17:57:47.381Z,99073.06
2023-02-28T18:00:18.252Z,99068.75
2023-02-28T18:02:47.856Z,99067.81
2023-02-28T18:05:15.378Z,99068.19
2023-02-28T18:07:50.118Z,99072.53
2023-02-28T18:10:22.997Z,99065.97
2023-02-28T18:12:52.398Z,99067.28
2023-02-28T18:15:22.230Z,99064.72
2023-02-28T18:17:50.405Z,99065.44
2023-02-28T18:20:18.265Z,99065.13
2023-02-28T18:22:45.615Z,99064.25
2023-02-28T18:25:29.866Z,99061.34
2023-02-28T18:28:00.965Z,99061.19
2023-02-28T18:30:52.424Z,99058.47
2023-02-28T18:33:20.965Z,99058.00
2023-02-28T18:35:56.552Z,99058.84
2023-02-28T18:38:24.252Z,99067.94
2023-02-28T18:40:57.197Z,99067.41
2023-02-28T18:43:24.952Z,99064.13
2023-02-28T18:45:52.289Z,99074.19
2023-02-28T18:48:19.861Z,99069.31
2023-02-28T18:50:47.639Z,99066.56
2023-02-28T18:53:14.938Z,99059.78
2023-02-28T18:55:42.250Z,99069.59
2023-02-28T18:58:09.855Z,99069.00
2023-02-28T19:00:37.356Z,99069.22
2023-02-28T19:03:05.050Z,99065.66
2023-02-28T19:05:34.412Z,99056.66
2023-02-28T19:08:02.707Z,99064.25
2023-02-28T19:10:30.013Z,99058.66
2023-02-28T19:12:57.354Z,99052.75
2023-02-28T19:15:24.697Z,99059.25
2023-02-28T19:17:52.022Z,99059.25
2023-02-28T19:20:19.733Z,99065.81
2023-02-28T19:22:47.055Z,99062.47
2023-02-28T19:25:14.388Z,99067.16
2023-02-28T19:27:41.669Z,99064.97
2023-02-28T19:30:09.779Z,99063.72
2023-02-28T19:32:37.281Z,99074.06
2023-02-28T19:35:05.007Z,99068.59
2023-02-28T19:37:32.384Z,99068.38
2023-02-28T19:39:59.750Z,99069.69
2023-02-28T19:42:32.905Z,99073.72
2023-02-28T19:45:00.735Z,99069.03
2023-02-28T19:47:29.091Z,99072.97
2023-02-28T19:49:56.698Z,99068.72
2023-02-28T19:52:24.988Z,99075.13
2023-02-28T19:54:52.825Z,99075.13
2023-02-28T19:57:20.133Z,99073.34
2023-02-28T19:59:47.482Z,99077.28
2023-02-28T20:02:17.588Z,99079.28
2023-02-28T20:04:48.876Z,99068.81
2023-02-28T20:07:17.370Z,99071.94
2023-02-28T20:09:45.533Z,99070.50
2023-02-28T20:12:23.395Z,99073.59
2023-02-28T20:14:51.838Z,99065.91
2023-02-28T20:17:19.349Z,99074.78
2023-02-28T20:19:46.947Z,99062.66
2023-02-28T20:22:14.311Z,99065.66
2023-02-28T20:24:41.635Z,99064.47
2023-02-28T20:27:08.972Z,99068.88
2023-02-28T20:29:36.437Z,99072.44
2023-02-28T20:32:03.960Z,99073.25
2023-02-28T20:34:31.258Z,99067.19
2023-02-28T20:36:59.571Z,99072.66
2023-02-28T20:39:26.939Z,99072.19
2023-02-28T20:41:54.234Z,99067.78
2023-02-28T20:44:21.711Z,99066.47
2023-02-28T20:46:49.050Z,99069.69
2023-02-28T20:49:16.600Z,99065.91
2023-02-28T20:51:44.065Z,99062.19
2023-02-28T20:54:11.744Z,99066.72
2023-02-28T20:56:39.107Z,99063.72
2023-02-28T20:59:06.470Z,99062.56
2023-02-28T21:01:34.314Z,99071.13
2023-02-28T21:04:08.083Z,99068.63
2023-02-28T21:06:38.511Z,99067.44
2023-02-28T21:09:08.054Z,99068.38
2023-02-28T21:11:38.112Z,99069.56
2023-02-28T21:14:15.534Z,99067.06
2023-02-28T21:16:44.381Z,99071.22
2023-02-28T21:19:11.889Z,99066.44
2023-02-28T21:21:45.067Z,99064.78
2023-02-28T21:24:14.320Z,99070.84
2023-02-28T21:26:42.353Z,99068.25
2023-02-28T21:29:10.220Z,99061.00
2023-02-28T21:31:37.543Z,99058.94
2023-02-28T21:34:07.549Z,99068.59
2023-02-28T21:36:45.136Z,99062.16
2023-02-28T21:39:20.029Z,99060.06
2023-02-28T21:41:48.045Z,99066.78
2023-02-28T21:44:18.631Z,99067.34
2023-02-28T21:46:48.171Z,99056.34
2023-02-28T21:49:16.374Z,99059.66
2023-02-28T21:51:43.774Z,99055.03
2023-02-28T21:54:11.232Z,99051.94
2023-02-28T21:56:38.958Z,99046.34
2023-02-28T21:59:09.256Z,99050.72
2023-02-28T22:01:43.982Z,99068.28
2023-02-28T22:04:20.864Z,99063.75
2023-02-28T22:06:58.852Z,99048.94
2023-02-28T22:09:26.402Z,99049.44
2023-02-28T22:11:53.732Z,99053.91
2023-02-28T22:14:20.996Z,99052.84
2023-02-28T22:16:51.821Z,99049.78
2023-02-28T22:19:21.271Z,99056.63
2023-02-28T22:21:48.906Z,99057.69
2023-02-28T22:24:17.704Z,99063.31
2023-02-28T22:26:45.312Z,99062.75
2023-02-28T22:29:12.656Z,99066.59
2023-02-28T22:31:40.085Z,99066.38
2023-02-28T22:34:09.548Z,99063.13
2023-02-28T22:36:36.857Z,99073.91
2023-02-28T22:39:05.383Z,99073.44
2023-02-28T22:41:33.005Z,99070.56
2023-02-28T22:44:02.134Z,99068.03
2023-02-28T22:46:32.115Z,99062.53
2023-02-28T22:49:01.062Z,99059.50
2023-02-28T22:51:28.525Z,99062.28
2023-02-28T22:53:58.025Z,99064.66
2023-02-28T22:56:27.951Z,99057.31
2023-02-28T22:58:58.875Z,99066.31
2023-02-28T23:01:28.497Z,99068.03
2023-02-28T23:03:55.988Z,99071.22
2023-02-28T23:06:37.689Z,99065.50
2023-02-28T23:09:09.537Z,99069.44
2023-02-28T23:11:41.966Z,99056.34
2023-02-28T23:14:10.308Z,99069.16
2023-02-28T23:16:46.983Z,99060.22
2023-02-28T23:19:24.369Z,99068.56
2023-02-28T23:21:52.631Z,99058.16
2023-02-28T23:24:23.765Z,99056.13
2023-02-28T23:26:55.033Z,99060.53
2023-02-28T23:29:23.390Z,99060.56
2023-02-28T23:31:51.120Z,99060.53
2023-02-28T23:34:26.154Z,99062.94
2023-02-28T23:36:59.584Z,99056.09
2023-02-28T23:39:28.655Z,99057.72
2023-02-28T23:41:56.209Z,99056.47
2023-02-28T23:44:23.513Z,99054.19
2023-02-28T23:46:53.126Z,99047.28
2023-02-28T23:49:21.788Z,99053.38
2023-02-28T23:51:50.110Z,99059.44
2023-02-28T23:54:18.838Z,99055.56
2023-02-28T23:56:46.379Z,99058.09
2023-02-28T23:59:13.795Z,99064.50
